Time;durP1;ratioP1;P1;durP2;ratioP2;P2;SDS_P1;SDS_P2;PMS_P1;PMS_P2;Temp;Humidity;BMP_temperature;BMP_pressure;BME280_temperature;BME280_humidity;BME280_pressure;Samples;Min_cycle;Max_cycle;Signal;HPM_P1;HPM_P2
2022/01/29 00:00:17;;;;;;;17.10;3.97;;;;;;;1.55;100.00;101856.94;4852432;29;20110;-79
2022/01/29 00:02:44;;;;;;;13.20;3.57;;;;;;;1.78;100.00;101849.03;4851540;29;20049;-79
2022/01/29 00:05:11;;;;;;;12.67;3.23;;;;;;;1.73;100.00;101855.81;4836736;29;20098;-79
2022/01/29 00:07:41;;;;;;;8.13;3.23;;;;;;;1.69;100.00;101855.72;4821885;29;20050;-78
2022/01/29 00:10:12;;;;;;;15.87;4.37;;;;;;;1.72;100.00;101854.91;4833557;29;20046;-78
2022/01/29 00:12:42;;;;;;;8.65;3.72;;;;;;;1.77;100.00;101847.28;4815102;29;20050;-78
2022/01/29 00:15:09;;;;;;;10.83;2.70;;;;;;;1.66;100.00;101834.75;4812414;29;20428;-79
2022/01/29 00:17:36;;;;;;;14.03;3.73;;;;;;;1.74;100.00;101835.00;4817998;29;20050;-79
2022/01/29 00:20:04;;;;;;;12.43;4.47;;;;;;;1.74;100.00;101841.94;4817298;29;20122;-79
2022/01/29 00:22:31;;;;;;;11.37;3.57;;;;;;;1.72;100.00;101843.63;4819953;29;20053;-80
2022/01/29 00:24:59;;;;;;;9.70;3.53;;;;;;;1.78;100.00;101843.84;4818383;29;20056;-79
2022/01/29 00:27:28;;;;;;;10.80;3.57;;;;;;;1.75;100.00;101838.50;4824965;29;20049;-78
2022/01/29 00:29:56;;;;;;;9.43;4.23;;;;;;;1.70;100.00;101840.97;4814810;29;20105;-79
2022/01/29 00:32:23;;;;;;;9.63;3.20;;;;;;;1.72;100.00;101843.63;4817575;29;20042;-79
2022/01/29 00:34:50;;;;;;;9.53;3.73;;;;;;;1.69;100.00;101840.06;4852607;29;20046;-80
2022/01/29 00:37:17;;;;;;;12.80;4.37;;;;;;;1.65;100.00;101830.38;4834417;29;20050;-78
2022/01/29 00:39:44;;;;;;;11.80;3.17;;;;;;;1.69;100.00;101823.56;4812789;29;20141;-78
2022/01/29 00:42:13;;;;;;;9.63;3.03;;;;;;;1.64;100.00;101823.41;4806729;29;20049;-80
2022/01/29 00:44:45;;;;;;;14.10;3.37;;;;;;;1.78;100.00;101818.66;4802401;29;20053;-79
2022/01/29 00:47:14;;;;;;;10.93;5.27;;;;;;;1.73;100.00;101809.78;4830516;29;20123;-79
2022/01/29 00:49:42;;;;;;;9.20;3.73;;;;;;;1.79;100.00;101816.94;4796781;29;20427;-79
2022/01/29 00:52:09;;;;;;;14.27;4.47;;;;;;;1.75;100.00;101815.03;4814154;29;20050;-80
2022/01/29 00:54:36;;;;;;;9.90;3.90;;;;;;;1.85;100.00;101811.91;4858369;29;20046;-79
2022/01/29 00:57:03;;;;;;;14.50;4.60;;;;;;;1.78;100.00;101794.34;4843404;29;20121;-79
2022/01/29 00:59:31;;;;;;;15.30;3.80;;;;;;;1.83;100.00;101800.56;4827756;29;20416;-79
2022/01/29 01:01:58;;;;;;;13.73;3.60;;;;;;;1.76;100.00;101793.38;4803615;29;20050;-79
2022/01/29 01:04:24;;;;;;;11.23;4.00;;;;;;;1.78;100.00;101779.59;4834734;29;20038;-78
2022/01/29 01:06:54;;;;;;;11.43;3.13;;;;;;;1.85;100.00;101775.44;4818425;29;20050;-78
2022/01/29 01:09:21;;;;;;;10.60;3.80;;;;;;;1.86;100.00;101777.22;4815257;29;20165;-78
2022/01/29 01:11:48;;;;;;;13.20;4.03;;;;;;;1.85;100.00;101765.00;4833834;29;20133;-79
2022/01/29 01:14:14;;;;;;;12.93;5.13;;;;;;;1.90;100.00;101756.50;4858289;29;20049;-77
2022/01/29 01:16:41;;;;;;;20.57;4.10;;;;;;;1.90;100.00;101750.41;4829975;29;20068;-79
2022/01/29 01:19:08;;;;;;;17.03;4.00;;;;;;;1.94;100.00;101739.28;4807981;29;20123;-78
2022/01/29 01:21:35;;;;;;;9.83;3.43;;;;;;;1.85;100.00;101739.88;4821677;29;20037;-77
2022/01/29 01:24:05;;;;;;;15.43;4.67;;;;;;;1.91;100.00;101729.63;4832821;29;20041;-77
2022/01/29 01:26:35;;;;;;;10.90;3.67;;;;;;;1.93;100.00;101717.53;4830635;29;20050;-77
2022/01/29 01:29:02;;;;;;;16.90;5.37;;;;;;;1.87;100.00;101730.38;4814358;29;20849;-78
2022/01/29 01:31:29;;;;;;;15.37;3.43;;;;;;;1.84;100.00;101718.94;4801732;29;20145;-78
2022/01/29 01:33:56;;;;;;;10.80;3.43;;;;;;;1.88;100.00;101710.41;4826930;29;20485;-79
2022/01/29 01:36:25;;;;;;;9.93;3.33;;;;;;;1.97;100.00;101702.88;4826379;29;20045;-77
2022/01/29 01:38:59;;;;;;;15.17;4.57;;;;;;;1.98;100.00;101699.44;4819972;29;20503;-77
2022/01/29 01:41:27;;;;;;;12.37;5.20;;;;;;;1.99;100.00;101680.34;4833077;29;20043;-77
2022/01/29 01:44:01;;;;;;;16.30;4.03;;;;;;;1.97;100.00;101682.03;4838161;29;20102;-79
2022/01/29 01:46:29;;;;;;;15.93;4.27;;;;;;;2.06;100.00;101664.06;4805443;29;20050;-78
2022/01/29 01:48:57;;;;;;;13.90;4.07;;;;;;;2.01;100.00;101660.41;4841341;29;20150;-77
2022/01/29 01:51:25;;;;;;;13.00;4.27;;;;;;;2.08;100.00;101651.94;4840502;29;20381;-78
2022/01/29 01:53:52;;;;;;;15.20;4.50;;;;;;;2.17;100.00;101647.00;4828288;29;20046;-77
2022/01/29 01:56:18;;;;;;;11.93;3.93;;;;;;;2.21;100.00;101640.19;4808764;29;20682;-76
2022/01/29 01:58:46;;;;;;;10.57;4.50;;;;;;;2.12;100.00;101638.19;4857737;29;20046;-78
2022/01/29 02:01:14;;;;;;;15.23;4.27;;;;;;;2.08;100.00;101636.31;4836206;29;20058;-79
2022/01/29 02:03:40;;;;;;;12.23;3.50;;;;;;;2.13;100.00;101633.84;4837443;29;20057;-78
2022/01/29 02:06:10;;;;;;;12.60;3.63;;;;;;;2.16;100.00;101626.13;4835778;29;20094;-78
2022/01/29 02:08:37;;;;;;;15.97;4.10;;;;;;;2.12;100.00;101622.53;4831954;29;20055;-79
2022/01/29 02:11:08;;;;;;;11.33;3.80;;;;;;;2.20;100.00;101628.00;4838806;29;20048;-79
2022/01/29 02:13:36;;;;;;;13.30;3.70;;;;;;;2.13;100.00;101624.31;4818528;29;20585;-79
2022/01/29 02:16:04;;;;;;;13.37;4.40;;;;;;;2.18;100.00;101621.81;4815120;29;20074;-79
2022/01/29 02:18:31;;;;;;;18.33;4.07;;;;;;;2.18;100.00;101603.56;4834709;29;20047;-78
2022/01/29 02:20:58;;;;;;;17.50;4.63;;;;;;;2.28;100.00;101604.75;4820329;29;20046;-78
2022/01/29 02:23:25;;;;;;;10.47;4.20;;;;;;;2.26;100.00;101594.25;4841369;29;20046;-77
2022/01/29 02:25:52;;;;;;;12.60;4.60;;;;;;;2.24;100.00;101591.59;4839745;29;20046;-78
2022/01/29 02:28:20;;;;;;;14.90;5.37;;;;;;;2.44;100.00;101594.78;4809308;29;20042;-77
2022/01/29 02:30:50;;;;;;;13.10;4.30;;;;;;;2.38;100.00;101593.72;4846862;23;20058;-81
2022/01/29 02:33:17;;;;;;;12.93;3.57;;;;;;;2.28;100.00;101589.09;4830189;29;20041;-81
2022/01/29 02:35:47;;;;;;;15.00;4.63;;;;;;;2.30;100.00;101582.19;4844009;29;20053;-81
2022/01/29 02:38:16;;;;;;;13.07;3.97;;;;;;;2.38;100.00;101589.38;4822155;29;20641;-80
2022/01/29 02:40:48;;;;;;;14.33;4.17;;;;;;;2.44;100.00;101586.06;4832163;29;20053;-80
2022/01/29 02:43:42;;;;;;;15.37;4.50;;;;;;;2.39;100.00;101583.31;4816194;29;20052;-81
2022/01/29 02:48:52;;;;;;;10.48;4.47;;;;;;;2.31;100.00;101560.50;4834660;29;20045;-79
2022/01/29 02:51:22;;;;;;;16.10;4.50;;;;;;;2.24;100.00;101549.88;4833689;29;20074;-81
2022/01/29 02:53:51;;;;;;;10.27;4.77;;;;;;;2.20;100.00;101539.34;4830977;29;20396;-80
2022/01/29 02:56:18;;;;;;;10.30;5.03;;;;;;;2.15;100.00;101535.72;4845769;29;20049;-80
2022/01/29 02:58:46;;;;;;;17.47;5.10;;;;;;;2.19;100.00;101522.81;5285760;23;20745;-80
2022/01/29 03:01:13;;;;;;;16.53;5.40;;;;;;;2.16;100.00;101516.63;4843110;29;20080;-80
2022/01/29 03:03:40;;;;;;;11.83;4.57;;;;;;;2.07;100.00;101516.38;4810238;29;20161;-80
2022/01/29 03:06:09;;;;;;;15.33;4.83;;;;;;;2.03;100.00;101520.63;4821089;29;20065;-79
2022/01/29 03:08:37;;;;;;;10.17;5.20;;;;;;;2.01;100.00;101514.47;4828943;29;20530;-80
2022/01/29 03:11:07;;;;;;;10.90;4.50;;;;;;;2.02;100.00;101510.13;4810081;29;20398;-79
2022/01/29 03:13:36;;;;;;;21.37;5.73;;;;;;;2.02;100.00;101502.31;4827283;29;20136;-79
2022/01/29 03:16:03;;;;;;;15.87;5.07;;;;;;;2.05;100.00;101492.00;4827898;29;20408;-79
2022/01/29 03:18:33;;;;;;;13.30;4.80;;;;;;;1.99;100.00;101492.69;4828820;29;20057;-79
2022/01/29 03:21:00;;;;;;;14.33;5.40;;;;;;;2.01;100.00;101484.91;4858066;29;20052;-79
2022/01/29 03:23:27;;;;;;;12.83;5.67;;;;;;;1.97;100.00;101481.34;4826670;29;20033;-80
2022/01/29 03:25:53;;;;;;;16.23;5.47;;;;;;;1.99;100.00;101464.03;4812441;29;20148;-79
2022/01/29 03:28:21;;;;;;;17.57;5.37;;;;;;;2.01;100.00;101457.13;4812458;29;20117;-80
2022/01/29 03:30:48;;;;;;;16.67;5.90;;;;;;;2.12;100.00;101440.06;4813104;29;20117;-79
2022/01/29 03:33:14;;;;;;;14.13;4.47;;;;;;;2.09;100.00;101446.91;4858174;29;20048;-79
2022/01/29 03:35:41;;;;;;;20.03;6.23;;;;;;;2.05;100.00;101450.28;4827941;29;20114;-79
2022/01/29 03:38:08;;;;;;;14.10;5.90;;;;;;;2.12;100.00;101439.19;4854075;29;20046;-80
2022/01/29 03:40:35;;;;;;;16.40;5.73;;;;;;;2.15;100.00;101436.66;4809727;29;20057;-79
2022/01/29 03:43:10;;;;;;;23.60;6.57;;;;;;;2.13;100.00;101426.19;4815776;29;20128;-80
2022/01/29 03:45:39;;;;;;;20.43;6.27;;;;;;;2.12;100.00;101418.34;4821813;29;20582;-80
2022/01/29 03:48:08;;;;;;;16.10;5.80;;;;;;;2.06;100.00;101413.84;4810493;29;20049;-80
2022/01/29 03:50:36;;;;;;;19.57;7.43;;;;;;;2.10;100.00;101414.78;4822414;29;20500;-80
2022/01/29 03:53:03;;;;;;;22.53;7.20;;;;;;;2.07;100.00;101412.13;4825739;29;20041;-79
2022/01/29 03:55:30;;;;;;;15.83;6.87;;;;;;;2.06;100.00;101403.41;4827107;29;20045;-79
2022/01/29 03:57:56;;;;;;;17.83;7.87;;;;;;;2.13;100.00;101392.31;4824976;29;20049;-80
2022/01/29 04:00:23;;;;;;;16.43;6.63;;;;;;;2.09;100.00;101384.38;4825023;29;20073;-80
2022/01/29 04:02:50;;;;;;;19.73;7.50;;;;;;;2.06;100.00;101387.78;4810216;29;20052;-80
2022/01/29 04:05:17;;;;;;;19.60;7.03;;;;;;;2.01;100.00;101381.56;4836163;29;20038;-79
2022/01/29 04:07:43;;;;;;;19.30;6.77;;;;;;;2.07;100.00;101381.72;4823990;29;20393;-79
2022/01/29 04:10:12;;;;;;;22.37;8.50;;;;;;;2.08;100.00;101373.06;4814566;29;20275;-79
2022/01/29 04:12:44;;;;;;;16.80;7.43;;;;;;;2.05;100.00;101367.78;4825782;29;20080;-79
2022/01/29 04:15:11;;;;;;;24.07;7.23;;;;;;;2.06;100.00;101361.72;4827729;29;20041;-79
2022/01/29 04:17:37;;;;;;;18.17;7.37;;;;;;;2.09;100.00;101361.78;4856646;29;20120;-79
2022/01/29 04:20:04;;;;;;;20.17;7.70;;;;;;;2.09;100.00;101347.88;4839897;29;20101;-78
2022/01/29 04:22:31;;;;;;;20.63;7.30;;;;;;;2.07;100.00;101347.84;4841229;29;20045;-80
2022/01/29 04:24:58;;;;;;;19.53;8.57;;;;;;;2.16;100.00;101336.75;4821946;29;20042;-78
2022/01/29 04:27:34;;;;;;;17.03;7.73;;;;;;;2.09;100.00;101337.44;4821902;29;20465;-82
2022/01/29 04:30:07;;;;;;;21.27;10.13;;;;;;;2.14;100.00;101334.13;4828118;29;20052;-80
2022/01/29 04:35:07;;;;;;;22.93;10.33;;;;;;;2.20;100.00;101305.59;4843582;29;20105;-78
2022/01/29 04:37:34;;;;;;;24.33;10.33;;;;;;;2.27;100.00;101301.41;4825831;29;20074;-81
2022/01/29 04:40:00;;;;;;;23.03;10.10;;;;;;;2.27;100.00;101304.03;4841938;29;20041;-78
2022/01/29 04:42:29;;;;;;;27.37;10.90;;;;;;;2.32;100.00;101285.88;4840190;29;20662;-78
2022/01/29 04:44:56;;;;;;;28.27;10.27;;;;;;;2.35;100.00;101283.31;4824202;29;20050;-79
2022/01/29 04:47:23;;;;;;;23.80;11.77;;;;;;;2.22;100.00;101275.22;4822892;29;20725;-79
2022/01/29 04:49:50;;;;;;;31.00;11.83;;;;;;;2.30;100.00;101266.72;4818098;29;20050;-79
2022/01/29 04:52:16;;;;;;;22.33;11.07;;;;;;;2.36;100.00;101267.72;4810663;29;20102;-79
2022/01/29 04:54:43;;;;;;;21.73;10.37;;;;;;;2.29;100.00;101252.78;4808983;29;20046;-78
2022/01/29 04:57:10;;;;;;;35.23;12.20;;;;;;;2.48;100.00;101259.28;4834791;29;20054;-82
2022/01/29 04:59:36;;;;;;;24.53;11.97;;;;;;;2.45;100.00;101246.19;4808568;29;20106;-80
2022/01/29 05:02:03;;;;;;;32.70;12.87;;;;;;;2.46;100.00;101234.91;4840637;29;20098;-80
2022/01/29 05:04:30;;;;;;;30.03;13.33;;;;;;;2.44;100.00;101234.88;4856449;29;20694;-81
2022/01/29 05:06:56;;;;;;;30.23;12.57;;;;;;;2.55;100.00;101235.09;4841010;29;20045;-79
2022/01/29 05:09:23;;;;;;;27.37;12.97;;;;;;;2.57;100.00;101220.34;4841376;29;20620;-79
2022/01/29 05:11:52;;;;;;;29.83;12.97;;;;;;;2.62;100.00;101220.47;4824433;29;20049;-79
2022/01/29 05:14:49;;;;;;;25.27;12.73;;;;;;;2.57;100.00;101209.94;4825796;29;20057;-80
2022/01/29 05:27:49;;;;;;;28.97;13.03;;;;;;;2.59;100.00;101174.31;4820175;29;20571;-79
2022/01/29 05:30:16;;;;;;;36.50;14.13;;;;;;;2.63;100.00;101163.09;4825096;29;20053;-78
2022/01/29 05:32:43;;;;;;;28.50;13.60;;;;;;;2.68;100.00;101161.44;4855147;29;20049;-83
2022/01/29 05:35:10;;;;;;;30.97;12.47;;;;;;;2.60;100.00;101162.16;4841467;29;20066;-79
2022/01/29 05:37:39;;;;;;;25.77;12.63;;;;;;;2.58;100.00;101141.25;4826073;29;20527;-81
2022/01/29 05:40:07;;;;;;;29.60;13.03;;;;;;;2.64;100.00;101138.78;4823805;29;20054;-77
2022/01/29 05:42:35;;;;;;;29.00;14.97;;;;;;;2.63;100.00;101137.03;4821597;29;20046;-79
2022/01/29 05:45:04;;;;;;;26.53;12.87;;;;;;;2.65;100.00;101139.66;4811765;29;20062;-78
2022/01/29 05:47:31;;;;;;;28.73;13.83;;;;;;;2.70;100.00;101146.72;4825224;29;20499;-79
2022/01/29 05:49:58;;;;;;;27.60;13.60;;;;;;;2.68;100.00;101134.47;4835832;29;20042;-78
2022/01/29 05:52:24;;;;;;;27.23;13.00;;;;;;;2.58;100.00;101132.56;4823241;29;20038;-79
2022/01/29 05:54:51;;;;;;;30.77;12.87;;;;;;;2.64;100.00;101133.56;4810218;29;20056;-79
2022/01/29 05:57:18;;;;;;;27.37;12.90;;;;;;;2.70;100.00;101125.88;4822160;29;20045;-78
2022/01/29 05:59:45;;;;;;;27.40;14.00;;;;;;;2.72;100.00;101113.72;4821854;29;20584;-80
2022/01/29 06:02:11;;;;;;;29.03;12.87;;;;;;;2.74;100.00;101109.41;4822900;29;20034;-79
2022/01/29 06:04:38;;;;;;;31.63;14.57;;;;;;;2.75;100.00;101105.06;4824634;29;20053;-78
2022/01/29 06:07:05;;;;;;;27.57;13.40;;;;;;;2.76;100.00;101092.03;4840706;29;20492;-79
2022/01/29 06:09:32;;;;;;;29.23;13.20;;;;;;;2.73;100.00;101083.28;4832550;29;20105;-79
2022/01/29 06:11:58;;;;;;;33.10;13.40;;;;;;;2.74;100.00;101087.66;4808987;29;20408;-79
2022/01/29 06:14:25;;;;;;;27.27;13.87;;;;;;;2.69;100.00;101082.38;4808491;29;20453;-80
2022/01/29 06:16:52;;;;;;;29.73;13.93;;;;;;;2.76;100.00;101075.50;4825140;29;20097;-79
2022/01/29 06:19:19;;;;;;;27.93;13.77;;;;;;;2.75;100.00;101069.41;4840263;29;20052;-79
2022/01/29 06:21:45;;;;;;;27.90;13.93;;;;;;;2.77;100.00;101067.69;4834810;29;20053;-80
2022/01/29 06:24:12;;;;;;;28.30;14.30;;;;;;;2.82;100.00;101073.00;4823476;29;20042;-80
2022/01/29 06:26:40;;;;;;;27.83;13.10;;;;;;;2.75;100.00;101058.97;4840616;29;20045;-79
2022/01/29 06:29:07;;;;;;;30.53;13.03;;;;;;;2.77;100.00;101041.59;4811979;29;20046;-78
2022/01/29 06:31:33;;;;;;;35.43;14.77;;;;;;;2.81;100.00;101066.91;4812037;29;20515;-80
2022/01/29 06:34:00;;;;;;;29.73;13.50;;;;;;;2.83;100.00;101061.72;4820579;29;20060;-80
2022/01/29 06:36:27;;;;;;;29.90;14.47;;;;;;;2.87;100.00;101042.66;4828656;29;20053;-79
2022/01/29 06:38:54;;;;;;;31.37;14.90;;;;;;;2.85;100.00;101049.56;4830873;29;20078;-79
2022/01/29 06:41:21;;;;;;;29.73;14.33;;;;;;;2.90;100.00;101032.28;4827595;29;20096;-80
2022/01/29 06:43:47;;;;;;;34.50;18.80;;;;;;;2.90;100.00;101031.41;4828231;29;20046;-81
2022/01/29 06:46:14;;;;;;;30.23;15.53;;;;;;;2.90;100.00;101028.78;4831108;29;20053;-79
2022/01/29 06:48:42;;;;;;;63.00;36.03;;;;;;;2.91;100.00;101028.81;4842707;29;20045;-80
2022/01/29 06:51:10;;;;;;;30.60;16.17;;;;;;;2.96;100.00;101028.91;4838802;29;20047;-79
2022/01/29 06:53:38;;;;;;;28.87;15.20;;;;;;;2.91;100.00;101022.72;4823869;29;20407;-79
2022/01/29 06:56:07;;;;;;;27.63;14.47;;;;;;;2.93;100.00;101023.59;4827942;29;20049;-80
2022/01/29 06:58:35;;;;;;;28.10;14.90;;;;;;;2.94;100.00;100997.53;4845102;29;20053;-80
2022/01/29 07:01:22;;;;;;;30.43;15.17;;;;;;;2.95;100.00;101001.03;4832304;29;20053;-80
2022/01/29 07:03:49;;;;;;;23.73;14.30;;;;;;;2.99;100.00;100984.56;4863532;29;20037;-80
2022/01/29 07:06:15;;;;;;;26.50;12.90;;;;;;;3.03;100.00;100984.66;4824763;29;20045;-82
2022/01/29 07:08:42;;;;;;;26.20;14.83;;;;;;;2.93;100.00;100976.63;4825936;29;21914;-81
2022/01/29 07:11:09;;;;;;;23.63;12.57;;;;;;;2.99;100.00;100967.16;4829979;29;20053;-80
2022/01/29 07:13:36;;;;;;;29.97;12.90;;;;;;;2.99;100.00;100963.69;4833030;29;20038;-79
2022/01/29 07:16:03;;;;;;;25.90;13.20;;;;;;;2.99;100.00;100948.91;4820265;29;20508;-81
2022/01/29 07:18:30;;;;;;;27.20;12.90;;;;;;;3.01;100.00;100941.97;4824445;29;20709;-80
2022/01/29 07:20:57;;;;;;;20.53;11.63;;;;;;;2.97;100.00;100936.69;4841402;29;20053;-80
2022/01/29 07:23:25;;;;;;;21.27;12.03;;;;;;;2.99;100.00;100937.59;4811867;29;20538;-80
2022/01/29 07:25:52;;;;;;;23.97;11.77;;;;;;;3.03;100.00;100940.28;4830328;29;20053;-80
2022/01/29 07:28:18;;;;;;;23.93;12.30;;;;;;;3.10;100.00;100933.38;4841303;29;20053;-79
2022/01/29 07:30:45;;;;;;;22.47;12.53;;;;;;;3.10;100.00;100909.88;4860464;29;20423;-78
2022/01/29 07:33:12;;;;;;;21.17;11.77;;;;;;;3.07;100.00;100908.13;4857644;29;20045;-79
2022/01/29 07:35:39;;;;;;;22.27;12.37;;;;;;;3.11;100.00;100906.41;4828840;29;20041;-78
2022/01/29 07:38:06;;;;;;;25.57;12.73;;;;;;;3.15;100.00;100907.34;4826133;29;20117;-77
2022/01/29 07:40:32;;;;;;;25.97;13.13;;;;;;;3.13;100.00;100906.47;4819874;29;20492;-79
2022/01/29 07:42:59;;;;;;;24.83;12.43;;;;;;;3.10;100.00;100900.31;4820842;29;20400;-78
2022/01/29 07:45:26;;;;;;;24.97;13.67;;;;;;;3.11;100.00;100890.75;4831149;29;20045;-79
2022/01/29 07:47:55;;;;;;;23.60;12.60;;;;;;;3.17;100.00;100892.59;4843325;29;20065;-79
2022/01/29 07:50:22;;;;;;;25.07;12.77;;;;;;;3.15;100.00;100887.34;4818928;29;20518;-79
2022/01/29 07:52:49;;;;;;;21.37;11.23;;;;;;;3.19;100.00;100880.41;4839893;29;20546;-79
2022/01/29 07:55:15;;;;;;;22.30;11.47;;;;;;;3.22;100.00;100870.91;4819363;29;20046;-79
2022/01/29 07:57:42;;;;;;;22.87;11.57;;;;;;;3.24;100.00;100871.81;4843803;29;20067;-79
2022/01/29 08:00:09;;;;;;;21.03;10.97;;;;;;;3.21;100.00;100868.28;4828303;29;20049;-79
2022/01/29 08:02:36;;;;;;;24.53;11.93;;;;;;;3.27;100.00;100871.81;4839129;29;20702;-79
2022/01/29 08:05:04;;;;;;;22.00;10.97;;;;;;;3.29;100.00;100844.03;4810743;29;20077;-79
2022/01/29 08:07:30;;;;;;;18.30;10.20;;;;;;;3.27;100.00;100844.84;4821883;29;20417;-81
2022/01/29 08:09:57;;;;;;;19.53;11.73;;;;;;;3.30;100.00;100837.94;4811991;29;20049;-80
2022/01/29 08:12:24;;;;;;;26.83;15.77;;;;;;;3.34;100.00;100841.44;4825291;29;20089;-79
2022/01/29 08:14:51;;;;;;;27.57;15.63;;;;;;;3.38;100.00;100840.66;4842014;29;20053;-81
2022/01/29 08:17:17;;;;;;;21.07;10.73;;;;;;;3.33;100.00;100834.47;4812086;29;20113;-80
2022/01/29 08:19:44;;;;;;;34.30;21.30;;;;;;;3.38;100.00;100827.59;4824160;29;20054;-79
2022/01/29 08:22:11;;;;;;;19.73;10.27;;;;;;;3.40;100.00;100828.47;4835682;29;20057;-79
2022/01/29 08:24:40;;;;;;;21.53;10.60;;;;;;;3.42;100.00;100815.44;4822983;29;20045;-79
2022/01/29 08:27:07;;;;;;;17.60;10.00;;;;;;;3.37;100.00;100805.81;4842557;29;20057;-80
2022/01/29 08:29:38;;;;;;;17.00;9.77;;;;;;;3.37;100.00;100818.88;4823746;29;20042;-79
2022/01/29 08:32:05;;;;;;;15.30;10.20;;;;;;;3.41;100.00;100804.09;4838762;29;22217;-82
2022/01/29 08:34:32;;;;;;;15.90;8.30;;;;;;;3.44;100.00;100800.63;4827809;29;20049;-81
2022/01/29 08:37:02;;;;;;;14.93;8.60;;;;;;;3.48;100.00;100805.06;4842024;29;20041;-80
2022/01/29 08:39:29;;;;;;;13.90;7.87;;;;;;;3.48;100.00;100797.22;4829090;29;20064;-81
2022/01/29 08:41:59;;;;;;;13.83;7.77;;;;;;;3.51;100.00;100787.66;4834612;29;20073;-80
2022/01/29 08:45:01;;;;;;;13.03;8.23;;;;;;;3.51;100.00;100786.78;4828868;29;20049;-80
2022/01/29 08:48:08;;;;;;;11.83;7.63;;;;;;;3.54;100.00;100773.78;4854473;29;20436;-80
2022/01/29 08:50:56;;;;;;;12.57;7.73;;;;;;;3.55;100.00;100775.53;4813541;29;20050;-80
2022/01/29 08:53:23;;;;;;;14.67;7.70;;;;;;;3.57;100.00;100772.06;4841667;29;20045;-80
2022/01/29 08:55:52;;;;;;;13.07;7.33;;;;;;;3.64;100.00;100754.72;4810547;29;20050;-79
2022/01/29 08:58:23;;;;;;;16.43;8.70;;;;;;;3.62;100.00;100740.78;4812663;29;20414;-80
2022/01/29 09:00:49;;;;;;;14.47;8.13;;;;;;;3.62;100.00;100719.88;4844080;29;20122;-80
2022/01/29 09:03:17;;;;;;;11.97;7.87;;;;;;;3.66;100.00;100743.41;4833786;29;20068;-80
2022/01/29 09:05:45;;;;;;;12.10;6.90;;;;;;;3.68;100.00;100739.06;4831674;29;20095;-80
2022/01/29 09:08:13;;;;;;;15.27;7.97;;;;;;;3.68;100.00;100732.97;4812880;29;20045;-79
2022/01/29 09:10:40;;;;;;;14.33;8.33;;;;;;;3.71;100.00;100727.78;4843934;29;20071;-79
2022/01/29 09:13:07;;;;;;;12.30;7.33;;;;;;;3.64;100.00;100719.00;4844566;29;20038;-79
2022/01/29 09:15:34;;;;;;;13.90;8.40;;;;;;;3.66;100.00;100725.13;4838742;29;20123;-79
2022/01/29 09:18:02;;;;;;;12.37;7.80;;;;;;;3.71;100.00;100701.66;4842570;29;20717;-80
2022/01/29 09:20:30;;;;;;;14.17;8.77;;;;;;;3.77;100.00;100687.75;4810588;29;20049;-79
2022/01/29 09:22:58;;;;;;;16.90;9.93;;;;;;;3.80;100.00;100669.50;4822475;29;20181;-80
2022/01/29 09:25:26;;;;;;;15.47;8.73;;;;;;;3.79;100.00;100663.41;4837916;29;20050;-80
2022/01/29 09:27:53;;;;;;;16.03;9.87;;;;;;;3.87;100.00;100666.06;4813230;29;20049;-80
2022/01/29 09:30:21;;;;;;;15.70;8.67;;;;;;;3.84;100.00;100651.22;4818368;29;20045;-80
2022/01/29 09:32:49;;;;;;;14.90;8.90;;;;;;;3.82;100.00;100652.94;4810684;29;20045;-80
2022/01/29 09:35:17;;;;;;;16.37;9.70;;;;;;;3.85;100.00;100650.34;4822279;29;20049;-79
2022/01/29 09:37:45;;;;;;;17.50;9.30;;;;;;;3.88;100.00;100646.91;4827584;29;20045;-80
2022/01/29 09:40:13;;;;;;;17.90;9.33;;;;;;;3.92;100.00;100652.13;4824053;29;20054;-79
2022/01/29 09:42:40;;;;;;;16.67;9.30;;;;;;;3.89;100.00;100639.06;4829982;29;20075;-78
2022/01/29 09:45:13;;;;;;;18.87;9.87;;;;;;;3.95;100.00;100641.72;4846086;29;20557;-79
2022/01/29 09:47:43;;;;;;;16.73;9.27;;;;;;;3.98;100.00;100646.09;4845763;29;20492;-79
2022/01/29 09:50:12;;;;;;;15.37;9.50;;;;;;;4.01;100.00;100635.63;4810570;29;20080;-78
2022/01/29 09:52:40;;;;;;;25.47;15.43;;;;;;;4.04;100.00;100632.19;4804838;29;20046;-79
2022/01/29 09:55:09;;;;;;;24.23;15.07;;;;;;;3.99;100.00;100619.06;4831813;29;20101;-79
2022/01/29 09:57:39;;;;;;;21.77;12.97;;;;;;;4.06;100.00;100623.47;4824712;29;20460;-79
2022/01/29 10:00:07;;;;;;;24.17;13.13;;;;;;;4.17;100.00;100631.38;4811300;29;20064;-79
2022/01/29 10:02:34;;;;;;;20.80;10.93;;;;;;;4.13;100.00;100616.56;4818660;29;20045;-79
2022/01/29 10:05:01;;;;;;;23.37;12.73;;;;;;;4.12;100.00;100617.38;4844579;29;20034;-80
2022/01/29 10:07:29;;;;;;;19.57;11.67;;;;;;;4.15;100.00;100623.53;4813897;29;20080;-79
2022/01/29 10:09:59;;;;;;;23.57;14.17;;;;;;;4.16;100.00;100620.03;4826807;29;20072;-81
2022/01/29 10:12:30;;;;;;;28.17;15.23;;;;;;;4.18;100.00;100623.53;4829094;29;20045;-79
2022/01/29 10:15:06;;;;;;;31.20;19.00;;;;;;;4.24;100.00;100620.06;4825194;29;20129;-80
2022/01/29 10:17:59;;;;;;;25.43;13.83;;;;;;;4.29;100.00;100604.38;4810595;29;20057;-80
2022/01/29 10:20:27;;;;;;;26.03;12.67;;;;;;;4.36;100.00;100608.78;4820189;29;20507;-79
2022/01/29 10:22:56;;;;;;;27.00;13.43;;;;;;;4.41;100.00;100602.72;4831828;29;20057;-79
2022/01/29 10:25:30;;;;;;;31.47;14.77;;;;;;;4.49;100.00;100593.16;4841285;29;20037;-79
2022/01/29 10:28:11;;;;;;;24.90;15.45;;;;;;;4.57;100.00;100608.88;4814099;29;20046;-79
2022/01/29 10:30:48;;;;;;;29.27;15.60;;;;;;;4.62;100.00;100588.81;4823275;29;20504;-79
2022/01/29 10:33:20;;;;;;;35.07;17.47;;;;;;;4.67;100.00;100591.44;4829941;23;20066;-84
2022/01/29 10:35:55;;;;;;;42.20;21.10;;;;;;;4.74;100.00;100581.00;4849952;29;20054;-84
2022/01/29 10:38:49;;;;;;;35.80;18.63;;;;;;;4.78;100.00;100571.41;4838782;29;20046;-82
2022/01/29 10:41:28;;;;;;;37.53;18.10;;;;;;;4.86;100.00;100556.56;4825249;29;20060;-85
2022/01/29 10:44:00;;;;;;;38.83;18.30;;;;;;;4.95;100.00;100556.59;4855045;29;20499;-83
2022/01/29 10:46:32;;;;;;;44.57;21.10;;;;;;;5.09;100.00;100560.09;4817812;29;20056;-84
2022/01/29 10:49:00;;;;;;;43.17;20.00;;;;;;;5.23;100.00;100561.84;4824718;29;20552;-83
2022/01/29 10:51:27;;;;;;;36.70;19.57;;;;;;;5.26;100.00;100567.06;4851350;29;20140;-84
2022/01/29 10:54:14;;;;;;;38.27;19.27;;;;;;;5.30;100.00;100556.59;4810150;29;20430;-83
2022/01/29 10:56:56;;;;;;;35.30;17.77;;;;;;;5.40;100.00;100544.38;4838880;29;20428;-85
2022/01/29 10:59:23;;;;;;;32.97;16.97;;;;;;;5.40;100.00;100556.59;4809746;29;20479;-83
2022/01/29 11:01:51;;;;;;;39.23;17.17;;;;;;;5.50;100.00;100537.38;4829798;29;20120;-83
2022/01/29 11:04:18;;;;;;;31.13;16.07;;;;;;;5.54;100.00;100534.72;4827285;29;20288;-83
2022/01/29 11:06:47;;;;;;;33.37;15.77;;;;;;;5.54;100.00;100524.25;4812554;29;20049;-84
2022/01/29 11:09:14;;;;;;;32.10;17.50;;;;;;;5.60;100.00;100516.38;4812961;29;20112;-85
2022/01/29 11:11:42;;;;;;;31.53;16.40;;;;;;;5.60;100.00;100505.88;4838513;29;20262;-86
2022/01/29 11:14:13;;;;;;;25.97;15.23;;;;;;;5.62;100.00;100501.50;4841077;29;20491;-86
2022/01/29 11:16:40;;;;;;;32.53;15.40;;;;;;;5.65;100.00;100503.28;4811297;29;20149;-83
2022/01/29 11:19:07;;;;;;;30.03;14.50;;;;;;;5.67;100.00;100490.16;4812232;29;20050;-85
2022/01/29 11:21:36;;;;;;;26.37;13.90;;;;;;;5.72;100.00;100483.13;4824086;29;20050;-84
2022/01/29 11:24:06;;;;;;;24.67;14.20;;;;;;;5.75;100.00;100485.75;4838028;29;20052;-84
2022/01/29 11:26:33;;;;;;;25.97;13.47;;;;;;;5.79;100.00;100470.00;4807228;29;20050;-84
2022/01/29 11:29:26;;;;;;;22.80;12.33;;;;;;;5.78;100.00;100470.00;4821269;29;20047;-85
2022/01/29 11:32:22;;;;;;;23.63;14.07;;;;;;;5.77;100.00;100453.41;4815529;29;20721;-84
2022/01/29 11:35:08;;;;;;;24.67;12.93;;;;;;;5.81;100.00;100452.53;4844614;29;20049;-84
2022/01/29 11:37:49;;;;;;;21.27;11.27;;;;;;;5.79;100.00;100435.91;4841925;29;20409;-84